Aviation Digital Data Service (ADDS)

Output produced by METARs form (2145 UTC 20 October 2018)
found at http://www.aviationweather.gov/metar/data/
 
METAR text: KAMW 202053Z AUTO 34018G27KT 10SM CLR 07/M07 A3031 RMK AO2 PK WND 33031/2006 SLP266 T00721067 53017 $
Conditions at: KAMW (AMES , IA, US) observed 2053 UTC 20 October 2018
Temperature: 7.2°C (45°F)
Dewpoint: -6.7°C (20°F) [RH = 36%]
Pressure (altimeter): 30.31 inches Hg (1026.5 mb)
[Sea-level pressure: 1026.6 mb]
Winds: from the NNW (340 degrees) at 21 MPH (18 knots; 9.3 m/s)
gusting to 31 MPH (27 knots; 13.9 m/s)
Visibility: 10 or more miles (16+ km)
Ceiling: at least 12,000 feet AGL
Clouds: sky clear below 12,000 feet AGL
Weather:
SOME DATA ABOVE MAY BE INACCURATE!!!
"$" is an indication the sensor requires maintenance